createdAt,value
2022-11-28T00:01:19.823Z,13.75
2022-11-28T00:03:47.193Z,14.13
2022-11-28T00:06:14.371Z,12.40
2022-11-28T00:08:41.527Z,15.10
2022-11-28T00:11:10.301Z,13.25
2022-11-28T00:13:37.864Z,14.80
2022-11-28T00:16:07.601Z,14.07
2022-11-28T00:18:35.131Z,13.70
2022-11-28T00:21:07.759Z,14.30
2022-11-28T00:23:34.580Z,13.45
2022-11-28T00:26:04.212Z,14.13
2022-11-28T00:28:31.074Z,13.27
2022-11-28T00:30:58.164Z,13.23
2022-11-28T00:33:25.268Z,14.18
2022-11-28T00:35:52.097Z,14.10
2022-11-28T00:40:45.388Z,11.75
2022-11-28T00:43:12.998Z,13.95
2022-11-28T00:45:39.807Z,13.60
2022-11-28T00:50:33.162Z,12.60
2022-11-28T00:53:00.234Z,13.18
2022-11-28T00:55:27.219Z,14.07
2022-11-28T01:00:22.155Z,13.70
2022-11-28T01:05:15.569Z,13.13
2022-11-28T01:07:42.385Z,14.30
2022-11-28T01:10:11.405Z,15.13
2022-11-28T01:12:39.958Z,15.75
2022-11-28T01:15:09.343Z,14.23
2022-11-28T01:17:36.435Z,15.65
2022-11-28T01:20:05.244Z,16.45
2022-11-28T01:22:32.225Z,15.35
2022-11-28T01:24:58.908Z,16.95
2022-11-28T01:27:25.612Z,16.17
2022-11-28T01:29:52.508Z,17.20
2022-11-28T01:32:19.182Z,17.85
2022-11-28T01:34:45.815Z,16.33
2022-11-28T01:37:12.614Z,16.85
2022-11-28T01:42:05.868Z,16.88
2022-11-28T01:44:32.664Z,15.98
2022-11-28T01:46:59.320Z,16.85
2022-11-28T01:49:30.577Z,15.27
2022-11-28T01:52:03.327Z,14.77
2022-11-28T01:54:31.872Z,14.25
2022-11-28T01:57:02.914Z,13.95
2022-11-28T01:59:33.972Z,13.68
2022-11-28T02:02:02.126Z,13.23
2022-11-28T02:04:29.048Z,13.27
2022-11-28T02:09:22.712Z,12.25
2022-11-28T02:12:15.266Z,13.88
2022-11-28T02:15:03.282Z,14.30
2022-11-28T02:17:48.524Z,13.60
2022-11-28T02:20:53.109Z,12.75
2022-11-28T02:23:48.006Z,13.02
2022-11-28T02:26:23.627Z,14.73
2022-11-28T02:28:59.087Z,14.52
2022-11-28T02:32:03.346Z,13.90
2022-11-28T02:34:57.067Z,11.23
2022-11-28T02:37:45.349Z,14.10
2022-11-28T02:40:32.470Z,14.35
2022-11-28T02:43:10.157Z,13.32
2022-11-28T02:46:11.253Z,13.52
2022-11-28T02:48:56.126Z,12.55
2022-11-28T02:53:55.220Z,11.27
2022-11-28T02:56:24.423Z,11.50
2022-11-28T02:58:51.536Z,13.80
2022-11-28T03:01:27.720Z,12.40
2022-11-28T03:03:54.530Z,11.43
2022-11-28T03:06:27.298Z,10.85
2022-11-28T03:09:13.910Z,10.02
2022-11-28T03:12:18.405Z,10.57
2022-11-28T03:14:52.508Z,11.27
2022-11-28T03:17:26.604Z,10.15
2022-11-28T03:20:13.304Z,12.05
2022-11-28T03:23:16.406Z,10.90
2022-11-28T03:26:00.507Z,10.80
2022-11-28T03:28:47.224Z,10.50
2022-11-28T03:31:24.544Z,10.93
2022-11-28T03:33:55.798Z,9.35
2022-11-28T03:36:27.824Z,11.15
2022-11-28T03:39:00.908Z,9.80
2022-11-28T03:42:04.992Z,9.70
2022-11-28T03:44:44.647Z,10.43
2022-11-28T03:47:11.846Z,10.50
2022-11-28T03:52:12.179Z,9.50
2022-11-28T03:54:41.924Z,10.20
2022-11-28T03:57:19.670Z,12.35
2022-11-28T03:59:54.146Z,12.35
2022-11-28T04:02:30.995Z,11.25
2022-11-28T04:05:09.105Z,11.80
2022-11-28T04:07:42.929Z,13.27
2022-11-28T04:10:26.652Z,17.35
2022-11-28T04:12:57.318Z,14.00
2022-11-28T04:15:37.463Z,14.15
2022-11-28T04:18:10.226Z,12.45
2022-11-28T04:20:48.063Z,10.00
2022-11-28T04:23:18.279Z,10.90
2022-11-28T04:26:11.869Z,13.25
2022-11-28T04:28:40.737Z,11.82
2022-11-28T04:31:18.861Z,11.10
2022-11-28T04:33:50.711Z,10.63
2022-11-28T04:36:20.106Z,11.98
2022-11-28T04:38:56.089Z,11.90
2022-11-28T04:41:46.663Z,11.73
2022-11-28T04:44:33.242Z,11.30
2022-11-28T04:47:00.001Z,11.15
2022-11-28T04:49:29.207Z,11.88
2022-11-28T04:52:07.732Z,11.55
2022-11-28T04:54:46.904Z,13.95
2022-11-28T04:57:30.558Z,11.95
2022-11-28T04:59:58.305Z,10.75
2022-11-28T05:02:25.870Z,12.13
2022-11-28T05:04:55.911Z,13.90
2022-11-28T05:07:24.933Z,13.18
2022-11-28T05:09:51.874Z,11.82
2022-11-28T05:12:18.607Z,11.50
2022-11-28T05:14:45.378Z,11.18
2022-11-28T05:17:13.497Z,10.18
2022-11-28T05:19:40.195Z,10.20
2022-11-28T05:22:06.899Z,10.65
2022-11-28T05:24:33.617Z,10.27
2022-11-28T05:27:00.722Z,9.80
2022-11-28T05:29:27.406Z,9.68
2022-11-28T05:31:54.176Z,10.10
2022-11-28T05:34:21.027Z,10.73
2022-11-28T05:39:15.036Z,8.43
2022-11-28T05:41:41.651Z,9.55
2022-11-28T05:44:10.224Z,9.77
2022-11-28T05:46:36.845Z,10.15
2022-11-28T05:49:03.612Z,10.07
2022-11-28T05:53:56.832Z,9.35
2022-11-28T05:58:50.659Z,9.25
2022-11-28T06:01:24.399Z,10.50
2022-11-28T06:03:52.399Z,13.32
2022-11-28T06:06:21.789Z,13.30
2022-11-28T06:08:49.908Z,11.48
2022-11-28T06:11:17.068Z,11.60
2022-11-28T06:13:45.547Z,13.13
2022-11-28T06:16:16.974Z,12.77
2022-11-28T06:18:44.484Z,11.43
2022-11-28T06:21:12.753Z,12.25
2022-11-28T06:23:41.152Z,11.77
2022-11-28T06:26:11.436Z,13.20
2022-11-28T06:28:39.299Z,11.55
2022-11-28T06:31:13.961Z,13.50
2022-11-28T06:33:41.717Z,11.57
2022-11-28T06:36:10.498Z,12.43
2022-11-28T06:38:38.264Z,11.20
2022-11-28T06:41:11.411Z,10.93
2022-11-28T06:43:38.598Z,10.50
2022-11-28T06:46:05.426Z,10.55
2022-11-28T06:48:32.556Z,11.98
2022-11-28T06:51:04.521Z,11.38
2022-11-28T06:53:31.750Z,11.85
2022-11-28T06:55:58.699Z,12.25
2022-11-28T06:58:25.440Z,11.35
2022-11-28T07:00:52.148Z,10.88
2022-11-28T07:05:45.693Z,9.88
2022-11-28T07:08:12.384Z,11.05
2022-11-28T07:13:06.023Z,9.98
2022-11-28T07:15:32.695Z,11.32
2022-11-28T07:17:59.298Z,11.45
2022-11-28T07:20:25.910Z,11.40
2022-11-28T07:22:52.914Z,10.57
2022-11-28T07:25:19.684Z,10.35
2022-11-28T07:27:46.283Z,10.88
2022-11-28T07:30:13.351Z,10.70
2022-11-28T07:32:41.123Z,11.77
2022-11-28T07:35:09.038Z,11.15
2022-11-28T07:37:36.515Z,11.20
2022-11-28T07:40:04.277Z,12.88
2022-11-28T07:42:30.891Z,12.68
2022-11-28T07:45:04.279Z,12.85
2022-11-28T07:47:34.859Z,11.85
2022-11-28T07:50:01.541Z,11.05
2022-11-28T07:52:28.165Z,12.55
2022-11-28T07:54:55.240Z,11.65
2022-11-28T07:57:22.495Z,11.60
2022-11-28T07:59:49.119Z,11.07
2022-11-28T08:02:16.068Z,11.68
2022-11-28T08:04:48.599Z,10.27
2022-11-28T08:07:17.255Z,12.43
2022-11-28T08:12:12.261Z,9.90
2022-11-28T08:14:38.980Z,9.75
2022-11-28T08:17:05.685Z,10.57
2022-11-28T08:22:02.334Z,10.98
2022-11-28T08:26:55.439Z,9.50
2022-11-28T08:29:22.149Z,10.40
2022-11-28T08:31:48.792Z,11.07
2022-11-28T08:34:15.528Z,11.07
2022-11-28T08:36:43.533Z,10.60
2022-11-28T08:39:27.536Z,10.85
2022-11-28T08:41:59.878Z,11.00
2022-11-28T08:44:30.234Z,10.88
2022-11-28T08:46:57.314Z,12.18
2022-11-28T08:51:51.246Z,11.55
2022-11-28T08:54:17.861Z,11.77
2022-11-28T08:56:46.821Z,11.35
2022-11-28T08:59:13.779Z,12.13
2022-11-28T09:01:41.035Z,12.43
2022-11-28T09:04:07.966Z,10.50
2022-11-28T09:06:34.674Z,10.68
2022-11-28T09:09:03.008Z,10.95
2022-11-28T09:11:29.753Z,11.13
2022-11-28T09:16:23.562Z,9.25
2022-11-28T09:18:54.885Z,10.50
2022-11-28T09:21:21.753Z,10.27
2022-11-28T09:26:20.174Z,10.38
2022-11-28T09:28:48.223Z,10.13
2022-11-28T09:31:16.968Z,9.70
2022-11-28T09:33:44.265Z,11.18
2022-11-28T09:36:13.784Z,12.25
2022-11-28T09:38:40.500Z,10.32
2022-11-28T09:43:55.732Z,10.63
2022-11-28T09:46:28.792Z,10.40
2022-11-28T09:49:00.539Z,9.20
2022-11-28T09:51:55.347Z,10.07
2022-11-28T09:54:50.212Z,8.52
2022-11-28T09:57:29.782Z,8.75
2022-11-28T09:59:56.459Z,11.30
2022-11-28T10:05:20.656Z,9.07
2022-11-28T10:07:55.105Z,8.60
2022-11-28T10:10:31.138Z,10.52
2022-11-28T10:12:57.782Z,10.50
2022-11-28T10:15:33.597Z,9.18
2022-11-28T10:18:33.328Z,9.60
2022-11-28T10:21:12.922Z,10.00
2022-11-28T10:23:45.395Z,9.38
2022-11-28T10:26:25.707Z,9.40
2022-11-28T10:28:55.598Z,9.23
2022-11-28T10:31:33.575Z,9.73
2022-11-28T10:34:09.626Z,8.82
2022-11-28T10:37:02.370Z,9.32
2022-11-28T10:39:29.124Z,8.63
2022-11-28T10:42:11.903Z,9.30
2022-11-28T10:44:44.513Z,9.43
2022-11-28T10:47:20.129Z,9.70
2022-11-28T10:50:05.829Z,9.38
2022-11-28T10:52:49.618Z,9.43
2022-11-28T10:55:58.510Z,9.82
2022-11-28T10:58:37.124Z,9.70
2022-11-28T11:01:04.613Z,8.95
2022-11-28T11:03:35.784Z,10.38
2022-11-28T11:06:03.106Z,8.75
2022-11-28T11:08:34.970Z,9.20
2022-11-28T11:11:04.525Z,10.05
2022-11-28T11:13:55.641Z,8.80
2022-11-28T11:16:22.963Z,9.90
2022-11-28T11:18:49.547Z,10.30
2022-11-28T11:21:25.037Z,9.30
2022-11-28T11:24:27.050Z,9.20
2022-11-28T11:27:02.415Z,10.00
2022-11-28T11:29:29.102Z,8.73
2022-11-28T11:34:24.326Z,9.75
2022-11-28T11:36:51.717Z,8.50
2022-11-28T11:39:25.667Z,9.02
2022-11-28T11:42:11.518Z,9.35
2022-11-28T11:44:38.154Z,10.23
2022-11-28T11:49:37.227Z,8.35
2022-11-28T11:52:15.027Z,9.45
2022-11-28T11:54:58.458Z,9.43
2022-11-28T11:57:44.371Z,8.95
2022-11-28T12:00:20.998Z,8.82
2022-11-28T12:02:54.090Z,8.48
2022-11-28T12:05:28.458Z,9.85
2022-11-28T12:08:02.322Z,9.10
2022-11-28T12:10:34.651Z,8.60
2022-11-28T12:13:04.833Z,8.98
2022-11-28T12:15:45.423Z,9.38
2022-11-28T12:18:35.906Z,9.05
2022-11-28T12:21:19.071Z,9.70
2022-11-28T12:24:10.034Z,9.57
2022-11-28T12:26:43.071Z,8.88
2022-11-28T12:29:38.539Z,10.75
2022-11-28T12:32:36.294Z,8.77
2022-11-28T12:35:42.782Z,8.88
2022-11-28T12:38:24.788Z,9.55
2022-11-28T12:41:16.280Z,8.45
2022-11-28T12:43:57.957Z,9.02
2022-11-28T12:46:49.257Z,9.27
2022-11-28T12:49:22.978Z,9.30
2022-11-28T12:52:31.561Z,8.73
2022-11-28T12:55:04.244Z,9.88
2022-11-28T12:57:45.359Z,9.27
2022-11-28T13:00:25.250Z,8.77
2022-11-28T13:03:26.279Z,9.57
2022-11-28T13:06:05.138Z,8.93
2022-11-28T13:08:49.377Z,8.50
2022-11-28T13:11:22.125Z,9.25
2022-11-28T13:13:59.087Z,9.50
2022-11-28T13:16:48.101Z,9.65
2022-11-28T13:19:33.252Z,8.95
2022-11-28T13:22:23.443Z,10.25
2022-11-28T13:25:07.025Z,10.15
2022-11-28T13:27:56.699Z,10.15
2022-11-28T13:30:26.044Z,10.20
2022-11-28T13:33:16.718Z,9.30
2022-11-28T13:35:46.463Z,9.73
2022-11-28T13:38:42.533Z,9.25
2022-11-28T13:42:09.654Z,9.23
2022-11-28T13:44:49.883Z,9.57
2022-11-28T13:47:22.486Z,9.32
2022-11-28T13:49:49.613Z,8.65
2022-11-28T13:52:19.175Z,9.00
2022-11-28T13:54:53.855Z,9.95
2022-11-28T13:57:29.722Z,8.55
2022-11-28T14:00:06.897Z,8.65
2022-11-28T14:02:46.498Z,8.48
2022-11-28T14:05:37.176Z,8.13
2022-11-28T14:08:05.611Z,9.10
2022-11-28T14:10:49.585Z,9.55
2022-11-28T14:13:44.124Z,10.05
2022-11-28T14:16:54.517Z,9.35
2022-11-28T14:19:30.440Z,9.80
2022-11-28T14:22:22.405Z,8.20
2022-11-28T14:25:01.175Z,8.75
2022-11-28T14:30:07.655Z,7.93
2022-11-28T14:32:36.611Z,8.98
2022-11-28T14:35:06.788Z,9.10
2022-11-28T14:37:47.779Z,8.77
2022-11-28T14:40:53.394Z,9.18
2022-11-28T14:43:43.838Z,8.60
2022-11-28T14:46:22.254Z,8.48
2022-11-28T14:48:58.244Z,10.55
2022-11-28T14:52:00.039Z,9.50
2022-11-28T14:54:42.479Z,9.73
2022-11-28T14:59:43.956Z,9.70
2022-11-28T15:02:11.006Z,9.45
2022-11-28T15:07:50.221Z,9.25
2022-11-28T15:10:52.967Z,9.98
2022-11-28T15:15:51.900Z,9.05
2022-11-28T15:18:25.240Z,9.38
2022-11-28T15:21:03.277Z,10.38
2022-11-28T15:23:31.996Z,9.68
2022-11-28T15:26:00.210Z,9.48
2022-11-28T15:28:28.937Z,10.45
2022-11-28T15:30:57.680Z,10.43
2022-11-28T15:33:26.402Z,9.45
2022-11-28T15:36:20.858Z,10.52
2022-11-28T15:38:48.502Z,10.18
2022-11-28T15:41:21.249Z,10.73
2022-11-28T15:43:48.228Z,17.00
2022-11-28T15:46:21.037Z,12.80
2022-11-28T15:48:50.139Z,16.13
2022-11-28T15:51:32.693Z,12.32
2022-11-28T15:54:00.523Z,12.52
2022-11-28T15:56:27.466Z,9.68
2022-11-28T16:01:24.024Z,14.30
2022-11-28T16:03:59.642Z,12.35
2022-11-28T16:06:36.618Z,12.07
2022-11-28T16:09:29.470Z,12.60
2022-11-28T16:11:56.515Z,12.35
2022-11-28T16:14:40.558Z,10.77
2022-11-28T16:17:23.801Z,10.40
2022-11-28T16:19:53.974Z,10.77
2022-11-28T16:22:27.289Z,10.93
2022-11-28T16:24:55.995Z,10.80
2022-11-28T16:27:29.199Z,12.48
2022-11-28T16:29:56.378Z,13.15
2022-11-28T16:32:37.934Z,15.05
2022-11-28T16:35:06.111Z,11.93
2022-11-28T16:37:33.361Z,13.82
2022-11-28T16:40:06.777Z,18.05
2022-11-28T16:42:35.458Z,14.82
2022-11-28T16:45:21.220Z,14.88
2022-11-28T16:47:55.827Z,14.18
2022-11-28T16:50:23.940Z,11.73
2022-11-28T16:53:00.262Z,12.10
2022-11-28T16:55:38.242Z,10.68
2022-11-28T16:58:21.178Z,11.55
2022-11-28T17:00:59.340Z,10.77
2022-11-28T17:03:42.213Z,10.95
2022-11-28T17:06:18.239Z,11.02
2022-11-28T17:08:45.329Z,10.75
2022-11-28T17:11:13.791Z,11.07
2022-11-28T17:13:40.616Z,12.32
2022-11-28T17:16:16.218Z,11.23
2022-11-28T17:18:43.841Z,11.65
2022-11-28T17:21:12.417Z,11.88
2022-11-28T17:23:40.965Z,10.88
2022-11-28T17:26:08.534Z,11.13
2022-11-28T17:28:35.280Z,10.60
2022-11-28T17:33:28.590Z,9.50
2022-11-28T17:38:22.936Z,10.77
2022-11-28T17:43:18.279Z,10.73
2022-11-28T17:45:45.749Z,9.82
2022-11-28T17:48:18.999Z,10.60
2022-11-28T17:50:50.605Z,11.07
2022-11-28T17:53:19.603Z,10.55
2022-11-28T17:55:48.864Z,10.85
2022-11-28T17:58:23.936Z,10.98
2022-11-28T18:00:53.943Z,10.82
2022-11-28T18:03:29.241Z,11.05
2022-11-28T18:05:55.923Z,13.95
2022-11-28T18:08:22.911Z,18.38
2022-11-28T18:10:50.780Z,15.80
2022-11-28T18:13:18.059Z,16.88
2022-11-28T18:15:47.552Z,18.88
2022-11-28T18:18:15.551Z,14.35
2022-11-28T18:20:42.582Z,16.88
2022-11-28T18:25:41.686Z,12.65
2022-11-28T18:28:08.420Z,12.80
2022-11-28T18:30:35.107Z,11.70
2022-11-28T18:33:01.928Z,12.63
2022-11-28T18:35:28.636Z,11.75
2022-11-28T18:37:55.578Z,12.25
2022-11-28T18:42:48.838Z,12.50
2022-11-28T18:45:15.622Z,13.00
2022-11-28T18:47:42.547Z,12.70
2022-11-28T18:50:09.540Z,13.32
2022-11-28T18:52:36.303Z,13.80
2022-11-28T18:55:04.114Z,14.27
2022-11-28T18:57:34.709Z,14.95
2022-11-28T19:00:02.132Z,14.35
2022-11-28T19:02:29.460Z,14.30
2022-11-28T19:04:56.882Z,14.32
2022-11-28T19:07:24.873Z,15.75
2022-11-28T19:09:52.554Z,16.42
2022-11-28T19:12:20.372Z,16.00
2022-11-28T19:14:47.045Z,17.48
2022-11-28T19:17:14.184Z,16.20
2022-11-28T19:22:08.383Z,17.02
2022-11-28T19:24:35.202Z,16.83
2022-11-28T19:27:01.956Z,17.73
2022-11-28T19:29:28.531Z,18.13
2022-11-28T19:31:55.580Z,17.83
2022-11-28T19:34:23.064Z,18.10
2022-11-28T19:36:51.160Z,18.20
2022-11-28T19:39:19.858Z,19.23
2022-11-28T19:41:47.391Z,17.40
2022-11-28T19:44:14.980Z,18.10
2022-11-28T19:46:42.805Z,17.00
2022-11-28T19:49:19.337Z,18.05
2022-11-28T19:51:47.171Z,17.15
2022-11-28T19:54:15.247Z,17.83
2022-11-28T19:56:42.193Z,17.55
2022-11-28T19:59:10.635Z,19.38
2022-11-28T20:01:38.958Z,17.80
2022-11-28T20:04:06.018Z,18.23
2022-11-28T20:06:34.106Z,19.85
2022-11-28T20:09:07.333Z,19.33
2022-11-28T20:11:37.740Z,21.85
2022-11-28T20:14:06.969Z,44.42
2022-11-28T20:16:35.835Z,33.25
2022-11-28T20:19:05.817Z,35.83
2022-11-28T20:21:34.264Z,37.75
2022-11-28T20:24:07.343Z,38.47
2022-11-28T20:26:38.831Z,30.67
2022-11-28T20:29:06.249Z,25.67
2022-11-28T20:31:42.056Z,22.92
2022-11-28T20:34:08.945Z,22.17
2022-11-28T20:39:04.658Z,21.10
2022-11-28T20:41:31.324Z,21.80
2022-11-28T20:44:01.946Z,22.52
2022-11-28T20:46:31.023Z,19.52
2022-11-28T20:48:59.886Z,19.27
2022-11-28T20:51:28.913Z,19.73
2022-11-28T20:53:57.989Z,19.90
2022-11-28T20:56:27.814Z,20.42
2022-11-28T20:58:54.700Z,20.23
2022-11-28T21:01:24.707Z,21.10
2022-11-28T21:03:52.403Z,21.05
2022-11-28T21:06:19.641Z,21.70
2022-11-28T21:08:46.757Z,19.40
2022-11-28T21:11:30.976Z,19.95
2022-11-28T21:14:04.949Z,19.05
2022-11-28T21:16:33.286Z,20.40
2022-11-28T21:19:07.633Z,20.55
2022-11-28T21:21:37.184Z,19.45
2022-11-28T21:24:12.547Z,17.38
2022-11-28T21:26:53.859Z,18.55
2022-11-28T21:29:22.208Z,16.58
2022-11-28T21:31:49.094Z,19.02
2022-11-28T21:34:16.758Z,17.10
2022-11-28T21:36:44.192Z,18.30
2022-11-28T21:39:14.042Z,18.15
2022-11-28T21:41:40.996Z,19.20
2022-11-28T21:44:08.193Z,20.58
2022-11-28T21:49:01.984Z,17.77
2022-11-28T21:51:28.845Z,17.25
2022-11-28T21:53:57.598Z,18.27
2022-11-28T21:56:24.991Z,17.63
2022-11-28T21:58:52.428Z,19.23
2022-11-28T22:01:20.353Z,18.85
2022-11-28T22:03:49.116Z,18.88
2022-11-28T22:06:21.842Z,18.55
2022-11-28T22:08:49.132Z,17.52
2022-11-28T22:11:16.521Z,18.00
2022-11-28T22:13:47.168Z,17.55
2022-11-28T22:16:18.809Z,18.20
2022-11-28T22:18:47.383Z,16.92
2022-11-28T22:21:49.977Z,18.02
2022-11-28T22:24:03.330Z,17.05
2022-11-28T22:26:30.045Z,17.33
2022-11-28T22:28:58.905Z,16.33
2022-11-28T22:31:25.909Z,17.33
2022-11-28T22:33:52.864Z,16.13
2022-11-28T22:36:21.579Z,17.33
2022-11-28T22:38:49.540Z,15.35
2022-11-28T22:41:27.625Z,16.15
2022-11-28T22:43:57.312Z,15.05
2022-11-28T22:46:24.353Z,14.70
2022-11-28T22:48:51.947Z,15.70
2022-11-28T22:51:21.822Z,14.00
2022-11-28T22:53:52.834Z,14.85
2022-11-28T22:56:19.538Z,13.32
2022-11-28T22:58:46.583Z,13.02
2022-11-28T23:01:17.396Z,12.13
2022-11-28T23:03:45.448Z,12.15
2022-11-28T23:06:19.382Z,12.98
2022-11-28T23:08:46.817Z,12.80
2022-11-28T23:11:17.722Z,12.00
2022-11-28T23:13:45.526Z,11.80
2022-11-28T23:16:28.079Z,11.82
2022-11-28T23:18:58.078Z,13.93
2022-11-28T23:21:28.344Z,9.18
2022-11-28T23:23:55.564Z,11.57
2022-11-28T23:26:24.902Z,11.45
2022-11-28T23:28:53.527Z,11.63
2022-11-28T23:31:23.249Z,12.07
2022-11-28T23:33:50.676Z,12.70
2022-11-28T23:36:29.830Z,12.82
2022-11-28T23:39:01.061Z,11.85
2022-11-28T23:41:29.794Z,11.70
2022-11-28T23:43:57.214Z,12.98
2022-11-28T23:46:25.101Z,11.63
2022-11-28T23:48:52.168Z,12.52
2022-11-28T23:51:21.895Z,11.93
2022-11-28T23:53:50.000Z,10.65
2022-11-28T23:56:23.148Z,7.53
2022-11-28T23:58:50.983Z,11.15
